Louisville, Kentucky
Current Conditions -  °F | °C
As of 7:18 AM on Tuesday 27 Jan 2015 (Local Time) from KSDF Reporting Station
Light Snow Light Snow  
Wind Chill: 23°   Ceiling: 1100
Heat Index: 30°   Visibility: 4mi
Dew Point: 27°   Wind: 7mph
Humidity: 88%   Direction: 10°N
Pressure: 29.97"   Gusts: NA
Location:  38.25°N, 85.77°W
Report Text: KSDF 271218Z 01006KT 4SM -SN BR BKN011 OVC023 M01/M03 A2997 RMK AO2 PCPN VRY LGT P0000 T10111028
Loading
Personal Weather Stations






























Interactive Weather Map New forecast layout! Learn more

10-Day Weather Forecast

Advertisements
Track Severe Weather on mobile